Green Bay, WI

4:47 AM CDT on August 31, 2015 (GMT -0500)
South Ashwaubenon | | Change Station
CLOSE
Current Station
Personal Weather Station
Location: Green Bay, WI
Elevation: 643 ft
Nearby Weather Stations
Active Advisory: Special Statement

Elev 643 ft 44.48 °N, 88.09 °W | Updated 6 minutes ago

Clear
Clear
60.3 °F
Feels Like 60.3 °F
N
0.0
Wind Variable Wind from NNE

Today
High -- | Low -- °F
--% Chance of Precip.
Yesterday
High -- | Low -- °F
Precip. -- in
6:13 AM 7:31 PM
Waning Gibbous, 96% visible
Pressure 30.01 in
Visibility 4.0 miles
Clouds Clear
Dew Point 60 °F
Humidity 99%
Rainfall 0.00 in
Snow Depth Not available.
UV 0 out of 12
Pollen 9.10 out of 12
Air Quality Not available.
Flu Activity Not available.
METAR KGRB 310853Z 22004KT 4SM BR CLR 17/16 A3002 RMK AO2 SLP162 T01670161 53006
Pressure 30.01 in
Visibility 4.0 miles
Clouds Clear
Dew Point 60 °F
Humidity 99%
Rainfall 0.00 in
Snow Depth Not available.
UV 0 out of 12
Pollen 9.10 out of 12
Air Quality Not available.
Flu Activity Not available.
METAR KGRB 310853Z 22004KT 4SM BR CLR 17/16 A3002 RMK AO2 SLP162 T01670161 53006

10-Day Weather Forecast

×

Almanac

Astronomy

Aug. 31, 2015 Rise Set
Actual Time
Civil Twilight
Nautical Twilight
Astronomical Twilight
Moon
Length of Visible Light
Length of Day
Tomorrow will be .
, % of the Moon is Illuminated

Today's Extremes

State Highs State Lows

Community

WunderPhotos

Upload Photos

1,851,229 photos uploaded!

WunderBlogs® & News

Nearby

Air Quality

  Air Quality AQ Index Pollutant
Not available.

Snow Depth

Station Depth Elevation

Earthquake Activity

City Distance Mag. Time & Date
Minimum magnitude displayed is 2.5.

Coastal Water Temperatures

Place Temperature

Stations

Nearby Weather Stations

Station Location Temp. Windchill Dew Point Humidity Wind Precip. Elev Updated Type
                   
Special Statement
Statement as of 4:22 AM CDT on August 31, 2015

... Areas of dense fog across central and east central Wisconsin...

Moist air combined with light winds and clear skies has resulted
in dense fog across parts of central and east central Wisconsin
again early this morning. Visibilities will be less than a quarter
mile in some areas so drive with care and be ready to slow down
when driving in fog. It should start to dissipate an hour or so
after sunrise.

Rdm

422 am CDT Mon Aug 31 2015

... Areas of dense fog across central and east central Wisconsin...

Moist air combined with light winds and clear skies has resulted
in dense fog across parts of central and east central Wisconsin
again early this morning. Visibilities will be less than a quarter
mile in some areas so drive with care and be ready to slow down
when driving in fog. It should start to dissipate an hour or so
after sunrise.

Rdm